createdAt,value
2022-10-02T00:03:19.310Z,993
2022-10-02T00:09:19.304Z,993
2022-10-02T00:15:19.307Z,993
2022-10-02T00:21:19.360Z,993
2022-10-02T00:27:19.281Z,993
2022-10-02T00:33:19.318Z,993
2022-10-02T00:39:19.314Z,993
2022-10-02T00:45:19.307Z,993
2022-10-02T00:51:19.541Z,993
2022-10-02T00:57:19.316Z,993
2022-10-02T01:03:19.297Z,993
2022-10-02T01:09:19.276Z,994
2022-10-02T01:15:19.306Z,994
2022-10-02T01:21:19.385Z,994
2022-10-02T01:27:19.371Z,994
2022-10-02T01:33:19.314Z,993
2022-10-02T01:39:19.300Z,994
2022-10-02T01:45:19.298Z,994
2022-10-02T01:51:19.355Z,994
2022-10-02T01:57:19.301Z,994
2022-10-02T02:03:19.295Z,994
2022-10-02T02:09:19.339Z,994
2022-10-02T02:15:19.295Z,994
2022-10-02T02:21:22.083Z,994
2022-10-02T02:27:19.337Z,994
2022-10-02T02:33:19.317Z,994
2022-10-02T02:39:19.321Z,993
2022-10-02T02:45:19.338Z,993
2022-10-02T02:51:19.322Z,993
2022-10-02T02:57:19.319Z,993
2022-10-02T03:03:19.341Z,994
2022-10-02T03:09:19.327Z,994
2022-10-02T03:15:19.300Z,994
2022-10-02T03:21:19.369Z,994
2022-10-02T03:27:19.324Z,993
2022-10-02T03:33:19.358Z,993
2022-10-02T03:39:25.302Z,993
2022-10-02T03:45:32.997Z,994
2022-10-02T03:51:19.343Z,994
2022-10-02T03:57:19.363Z,994
2022-10-02T04:03:19.385Z,993
2022-10-02T04:09:19.315Z,993
2022-10-02T04:15:19.338Z,993
2022-10-02T04:21:19.315Z,993
2022-10-02T04:27:19.321Z,994
2022-10-02T04:33:19.356Z,994
2022-10-02T04:39:19.332Z,994
2022-10-02T04:45:19.307Z,994
2022-10-02T04:51:19.331Z,994
2022-10-02T04:57:19.341Z,994
2022-10-02T05:03:19.379Z,994
2022-10-02T05:09:19.346Z,994
2022-10-02T05:15:19.327Z,994
2022-10-02T05:21:19.302Z,994
2022-10-02T05:27:19.325Z,994
2022-10-02T05:33:19.328Z,994
2022-10-02T05:39:19.309Z,994
2022-10-02T05:45:19.390Z,994
2022-10-02T05:51:19.307Z,994
2022-10-02T05:57:19.350Z,994
2022-10-02T06:03:19.323Z,994
2022-10-02T06:09:20.418Z,994
2022-10-02T06:15:19.323Z,994
2022-10-02T06:21:19.342Z,994
2022-10-02T06:27:19.335Z,994
2022-10-02T06:33:19.336Z,994
2022-10-02T06:39:19.343Z,994
2022-10-02T06:45:19.368Z,994
2022-10-02T06:51:19.332Z,994
2022-10-02T06:57:19.353Z,994
2022-10-02T07:03:19.320Z,994
2022-10-02T07:09:19.312Z,995
2022-10-02T07:15:19.365Z,995
2022-10-02T07:21:19.343Z,995
2022-10-02T07:27:19.332Z,995
2022-10-02T07:33:19.358Z,995
2022-10-02T07:39:19.319Z,995
2022-10-02T07:45:19.335Z,995
2022-10-02T07:51:21.047Z,995
2022-10-02T07:57:19.345Z,995
2022-10-02T08:03:19.476Z,995
2022-10-02T08:09:19.368Z,995
2022-10-02T08:15:19.334Z,995
2022-10-02T08:21:19.314Z,995
2022-10-02T08:27:19.357Z,995
2022-10-02T08:33:19.323Z,995
2022-10-02T08:39:19.347Z,995
2022-10-02T08:45:19.377Z,995
2022-10-02T08:51:19.363Z,995
2022-10-02T08:57:19.336Z,995
2022-10-02T09:03:19.409Z,995
2022-10-02T09:09:19.333Z,995
2022-10-02T09:15:19.377Z,995
2022-10-02T09:21:19.375Z,995
2022-10-02T09:27:19.379Z,995
2022-10-02T09:33:19.323Z,995
2022-10-02T09:39:19.357Z,995
2022-10-02T09:45:19.363Z,995
2022-10-02T09:51:19.343Z,995
2022-10-02T09:57:19.385Z,995
2022-10-02T10:03:19.343Z,995
2022-10-02T10:09:19.364Z,995
2022-10-02T10:15:19.359Z,995
2022-10-02T10:21:19.347Z,995
2022-10-02T10:27:19.361Z,995
2022-10-02T10:33:19.359Z,995
2022-10-02T10:39:19.342Z,995
2022-10-02T10:45:19.364Z,995
2022-10-02T10:51:19.372Z,995
2022-10-02T10:57:19.368Z,995
2022-10-02T11:03:19.359Z,995
2022-10-02T11:09:19.436Z,996
2022-10-02T11:15:19.351Z,996
2022-10-02T11:21:19.341Z,996
2022-10-02T11:27:19.366Z,996
2022-10-02T11:33:19.370Z,996
2022-10-02T11:39:19.336Z,996
2022-10-02T11:45:19.445Z,996
2022-10-02T11:51:19.344Z,996
2022-10-02T11:57:19.367Z,996
2022-10-02T12:03:19.448Z,996
2022-10-02T12:09:19.360Z,996
2022-10-02T12:15:19.367Z,996
2022-10-02T12:21:19.371Z,996
2022-10-02T12:27:19.373Z,996
2022-10-02T12:33:19.378Z,996
2022-10-02T12:39:22.042Z,996
2022-10-02T12:45:19.391Z,996
2022-10-02T12:51:19.398Z,996
2022-10-02T12:57:19.425Z,996
2022-10-02T13:03:19.414Z,996
2022-10-02T13:09:19.373Z,996
2022-10-02T13:15:19.405Z,996
2022-10-02T13:21:19.368Z,996
2022-10-02T13:27:19.368Z,996
2022-10-02T13:33:19.484Z,996
2022-10-02T13:39:19.368Z,996
2022-10-02T13:45:19.390Z,996
2022-10-02T13:51:19.393Z,996
2022-10-02T13:57:19.389Z,996
2022-10-02T14:03:19.390Z,996
2022-10-02T14:09:19.397Z,996
2022-10-02T14:15:19.391Z,996
2022-10-02T14:21:19.383Z,996
2022-10-02T14:27:19.438Z,996
2022-10-02T14:33:19.441Z,996
2022-10-02T14:39:19.384Z,996
2022-10-02T14:45:19.435Z,996
2022-10-02T14:51:19.406Z,996
2022-10-02T14:57:19.734Z,996
2022-10-02T15:03:19.434Z,996
2022-10-02T15:09:19.394Z,996
2022-10-02T15:15:19.395Z,996
2022-10-02T15:21:19.431Z,996
2022-10-02T15:27:19.381Z,996
2022-10-02T15:33:19.394Z,996
2022-10-02T15:39:19.406Z,997
2022-10-02T15:45:19.402Z,997
2022-10-02T15:51:19.502Z,997
2022-10-02T15:57:19.406Z,997
2022-10-02T16:03:19.395Z,997
2022-10-02T16:09:19.410Z,997
2022-10-02T16:15:19.427Z,997
2022-10-02T16:21:19.397Z,997
2022-10-02T16:27:19.382Z,997
2022-10-02T16:33:19.410Z,997
2022-10-02T16:39:19.417Z,997
2022-10-02T16:45:19.407Z,997
2022-10-02T16:51:19.421Z,997
2022-10-02T16:57:19.387Z,997
2022-10-02T17:03:19.400Z,997
2022-10-02T17:09:19.445Z,998
2022-10-02T17:15:19.444Z,998
2022-10-02T17:21:19.437Z,998
2022-10-02T17:27:19.465Z,998
2022-10-02T17:33:19.407Z,998
2022-10-02T17:39:19.420Z,998
2022-10-02T17:45:19.419Z,998
2022-10-02T17:51:50.749Z,998
2022-10-02T17:57:19.394Z,999
2022-10-02T18:03:19.440Z,999
2022-10-02T18:09:19.485Z,999
2022-10-02T18:15:19.421Z,999
2022-10-02T18:21:19.428Z,999
2022-10-02T18:27:19.439Z,999
2022-10-02T18:33:19.390Z,999
2022-10-02T18:39:19.436Z,999
2022-10-02T18:45:19.471Z,999
2022-10-02T18:51:19.395Z,999
2022-10-02T18:57:19.430Z,999
2022-10-02T19:03:19.396Z,999
2022-10-02T19:09:19.411Z,999
2022-10-02T19:15:19.419Z,1000
2022-10-02T19:21:19.417Z,1000
2022-10-02T19:27:19.393Z,1000
2022-10-02T19:33:19.458Z,1000
2022-10-02T19:39:19.431Z,1000
2022-10-02T19:45:22.945Z,1000
2022-10-02T19:51:19.452Z,1000
2022-10-02T19:57:19.438Z,1000
2022-10-02T20:03:19.413Z,1000
2022-10-02T20:09:19.471Z,1000
2022-10-02T20:15:19.450Z,1000
2022-10-02T20:21:19.428Z,1000
2022-10-02T20:27:19.459Z,1001
2022-10-02T20:33:19.426Z,1001
2022-10-02T20:39:19.442Z,1001
2022-10-02T20:45:19.448Z,1001
2022-10-02T20:51:19.399Z,1001
2022-10-02T20:57:19.426Z,1001
2022-10-02T21:03:19.455Z,1001
2022-10-02T21:09:19.411Z,1001
2022-10-02T21:15:19.400Z,1001
2022-10-02T21:21:19.462Z,1001
2022-10-02T21:27:19.404Z,1001
2022-10-02T21:33:19.423Z,1001
2022-10-02T21:39:19.430Z,1001
2022-10-02T21:45:19.464Z,1001
2022-10-02T21:51:19.428Z,1002
2022-10-02T21:57:19.449Z,1002
2022-10-02T22:03:19.399Z,1002
2022-10-02T22:09:19.446Z,1002
2022-10-02T22:15:19.480Z,1002
2022-10-02T22:21:19.422Z,1002
2022-10-02T22:27:19.446Z,1002
2022-10-02T22:33:19.444Z,1002
2022-10-02T22:39:19.424Z,1002
2022-10-02T22:45:19.433Z,1002
2022-10-02T22:51:19.513Z,1002
2022-10-02T22:57:19.406Z,1002
2022-10-02T23:03:19.421Z,1002
2022-10-02T23:09:19.434Z,1002
2022-10-02T23:15:19.433Z,1002
2022-10-02T23:21:19.415Z,1002
2022-10-02T23:27:19.444Z,1002
2022-10-02T23:33:19.430Z,1002
2022-10-02T23:39:19.437Z,1002
2022-10-02T23:45:19.438Z,1002
2022-10-02T23:51:19.424Z,1002
2022-10-02T23:57:19.404Z,1002
